sensor_id;sensor_type;location;lat;lon;timestamp;pressure;altitude;pressure_sealevel;temperature;humidity
67397;BME280;57728;50.448;18.824;2023-04-03T00:00:54;98289.31;;;2.97;76.80
67397;BME280;57728;50.448;18.824;2023-04-03T00:02:56;98288.47;;;2.96;76.85
67397;BME280;57728;50.448;18.824;2023-04-03T00:04:58;98289.84;;;2.92;77.00
67397;BME280;57728;50.448;18.824;2023-04-03T00:07:01;98262.19;;;2.75;76.79
67397;BME280;57728;50.448;18.824;2023-04-03T00:09:02;98295.03;;;2.93;76.89
67397;BME280;57728;50.448;18.824;2023-04-03T00:11:06;98222.47;;;2.46;76.85
67397;BME280;57728;50.448;18.824;2023-04-03T00:13:08;98297.72;;;2.93;76.94
67397;BME280;57728;50.448;18.824;2023-04-03T00:15:11;98285.34;;;2.84;76.88
67397;BME280;57728;50.448;18.824;2023-04-03T00:17:13;98293.16;;;2.94;77.05
67397;BME280;57728;50.448;18.824;2023-04-03T00:19:14;98300.25;;;2.95;77.11
67397;BME280;57728;50.448;18.824;2023-04-03T00:21:16;98263.88;;;2.76;77.03
67397;BME280;57728;50.448;18.824;2023-04-03T00:23:18;98298.91;;;2.91;76.97
67397;BME280;57728;50.448;18.824;2023-04-03T00:25:20;98297.06;;;2.91;77.02
67397;BME280;57728;50.448;18.824;2023-04-03T00:27:22;98270.78;;;2.70;76.82
67397;BME280;57728;50.448;18.824;2023-04-03T00:29:24;98252.81;;;2.63;76.84
67397;BME280;57728;50.448;18.824;2023-04-03T00:31:25;98295.22;;;2.92;77.02
67397;BME280;57728;50.448;18.824;2023-04-03T00:33:27;98298.72;;;2.92;76.95
67397;BME280;57728;50.448;18.824;2023-04-03T00:35:29;98291.88;;;2.90;77.09
67397;BME280;57728;50.448;18.824;2023-04-03T00:37:31;98298.56;;;2.94;76.95
67397;BME280;57728;50.448;18.824;2023-04-03T00:39:33;98295.72;;;2.96;76.88
67397;BME280;57728;50.448;18.824;2023-04-03T00:41:35;98259.00;;;2.71;76.94
67397;BME280;57728;50.448;18.824;2023-04-03T00:43:36;98295.88;;;2.94;76.85
67397;BME280;57728;50.448;18.824;2023-04-03T00:45:41;98267.75;;;2.73;76.87
67397;BME280;57728;50.448;18.824;2023-04-03T00:47:46;98222.00;;;2.42;76.81
67397;BME280;57728;50.448;18.824;2023-04-03T00:49:49;98261.69;;;2.71;77.09
67397;BME280;57728;50.448;18.824;2023-04-03T00:51:53;98305.44;;;2.97;76.74
67397;BME280;57728;50.448;18.824;2023-04-03T00:54:05;98301.91;;;2.96;76.89
67397;BME280;57728;50.448;18.824;2023-04-03T00:56:15;98255.00;;;2.67;76.71
67397;BME280;57728;50.448;18.824;2023-04-03T00:58:25;98226.72;;;2.40;76.69
67397;BME280;57728;50.448;18.824;2023-04-03T01:00:38;98294.25;;;2.85;76.71
67397;BME280;57728;50.448;18.824;2023-04-03T01:02:45;98302.63;;;2.90;76.95
67397;BME280;57728;50.448;18.824;2023-04-03T01:04:48;98253.53;;;2.56;76.88
67397;BME280;57728;50.448;18.824;2023-04-03T01:06:50;98269.41;;;2.74;76.79
67397;BME280;57728;50.448;18.824;2023-04-03T01:08:54;98269.09;;;2.69;76.55
67397;BME280;57728;50.448;18.824;2023-04-03T01:10:56;98267.13;;;2.63;76.71
67397;BME280;57728;50.448;18.824;2023-04-03T01:13:00;98249.34;;;2.54;76.64
67397;BME280;57728;50.448;18.824;2023-04-03T01:15:22;98294.94;;;2.79;76.60
67397;BME280;57728;50.448;18.824;2023-04-03T01:17:38;98246.16;;;2.50;76.57
67397;BME280;57728;50.448;18.824;2023-04-03T01:19:50;98313.59;;;2.80;76.69
67397;BME280;57728;50.448;18.824;2023-04-03T01:22:21;98312.38;;;2.83;76.55
67397;BME280;57728;50.448;18.824;2023-04-03T01:24:36;98312.38;;;2.83;76.64
67397;BME280;57728;50.448;18.824;2023-04-03T01:26:45;98316.59;;;2.85;76.58
67397;BME280;57728;50.448;18.824;2023-04-03T01:28:46;98319.09;;;2.87;76.66
67397;BME280;57728;50.448;18.824;2023-04-03T01:33:42;98218.88;;;2.22;76.58
67397;BME280;57728;50.448;18.824;2023-04-03T01:35:44;98259.47;;;2.44;76.47
67397;BME280;57728;50.448;18.824;2023-04-03T01:37:46;98260.78;;;2.48;76.61
67397;BME280;57728;50.448;18.824;2023-04-03T01:39:48;98294.28;;;2.68;76.39
67397;BME280;57728;50.448;18.824;2023-04-03T01:41:49;98318.63;;;2.83;76.41
67397;BME280;57728;50.448;18.824;2023-04-03T01:44:03;98133.31;;;1.54;76.28
67397;BME280;57728;50.448;18.824;2023-04-03T01:46:06;98319.97;;;2.79;76.19
67397;BME280;57728;50.448;18.824;2023-04-03T01:48:08;98061.13;;;1.12;76.16
67397;BME280;57728;50.448;18.824;2023-04-03T01:50:09;98326.34;;;2.78;76.25
67397;BME280;57728;50.448;18.824;2023-04-03T01:52:12;98327.38;;;2.77;76.18
67397;BME280;57728;50.448;18.824;2023-04-03T01:54:14;98339.81;;;2.78;76.11
67397;BME280;57728;50.448;18.824;2023-04-03T01:56:15;98249.09;;;2.24;76.08
67397;BME280;57728;50.448;18.824;2023-04-03T01:58:17;98330.91;;;2.78;76.19
67397;BME280;57728;50.448;18.824;2023-04-03T02:00:19;98242.03;;;2.23;75.99
67397;BME280;57728;50.448;18.824;2023-04-03T02:02:20;98264.34;;;2.32;75.94
67397;BME280;57728;50.448;18.824;2023-04-03T02:04:22;98334.97;;;2.73;75.74
67397;BME280;57728;50.448;18.824;2023-04-03T02:06:24;98264.03;;;2.27;75.79
67397;BME280;57728;50.448;18.824;2023-04-03T02:08:26;98343.38;;;2.70;75.64
67397;BME280;57728;50.448;18.824;2023-04-03T02:10:28;98000.84;;;0.58;75.54
67397;BME280;57728;50.448;18.824;2023-04-03T02:12:31;98338.84;;;2.63;75.22
67397;BME280;57728;50.448;18.824;2023-04-03T02:14:33;98301.28;;;2.38;75.37
67397;BME280;57728;50.448;18.824;2023-04-03T02:16:35;98281.69;;;2.21;75.38
67397;BME280;57728;50.448;18.824;2023-04-03T02:18:36;98265.75;;;2.11;75.12
67397;BME280;57728;50.448;18.824;2023-04-03T02:20:38;98313.03;;;2.37;75.11
67397;BME280;57728;50.448;18.824;2023-04-03T02:22:40;98341.06;;;2.51;74.93
67397;BME280;57728;50.448;18.824;2023-04-03T02:24:42;98354.16;;;2.46;74.80
67397;BME280;57728;50.448;18.824;2023-04-03T02:26:43;98353.19;;;2.38;74.56
67397;BME280;57728;50.448;18.824;2023-04-03T02:28:45;98250.88;;;1.67;74.33
67397;BME280;57728;50.448;18.824;2023-04-03T02:30:47;98347.50;;;2.25;74.63
67397;BME280;57728;50.448;18.824;2023-04-03T02:32:49;98262.44;;;1.60;74.42
67397;BME280;57728;50.448;18.824;2023-04-03T02:34:52;98330.03;;;1.96;74.57
67397;BME280;57728;50.448;18.824;2023-04-03T02:36:53;98331.09;;;1.95;74.33
67397;BME280;57728;50.448;18.824;2023-04-03T02:38:55;98351.06;;;2.01;74.40
67397;BME280;57728;50.448;18.824;2023-04-03T02:41:07;98327.03;;;1.75;74.59
67397;BME280;57728;50.448;18.824;2023-04-03T02:43:11;98323.00;;;1.70;74.38
67397;BME280;57728;50.448;18.824;2023-04-03T02:45:12;98258.75;;;1.28;74.46
67397;BME280;57728;50.448;18.824;2023-04-03T02:47:15;98293.78;;;1.43;74.60
67397;BME280;57728;50.448;18.824;2023-04-03T02:49:17;98334.56;;;1.54;74.71
67397;BME280;57728;50.448;18.824;2023-04-03T02:51:18;98231.56;;;0.98;74.68
67397;BME280;57728;50.448;18.824;2023-04-03T02:53:20;98142.97;;;0.40;74.88
67397;BME280;57728;50.448;18.824;2023-04-03T02:55:23;98366.31;;;1.76;74.69
67397;BME280;57728;50.448;18.824;2023-04-03T02:57:28;98324.31;;;1.50;74.75
67397;BME280;57728;50.448;18.824;2023-04-03T02:59:30;98366.94;;;1.69;74.76
67397;BME280;57728;50.448;18.824;2023-04-03T03:01:31;98371.66;;;1.67;74.84
67397;BME280;57728;50.448;18.824;2023-04-03T03:03:33;98364.78;;;1.65;74.59
67397;BME280;57728;50.448;18.824;2023-04-03T03:05:36;98290.06;;;1.11;74.56
67397;BME280;57728;50.448;18.824;2023-04-03T03:07:37;98300.63;;;1.12;74.36
67397;BME280;57728;50.448;18.824;2023-04-03T03:09:38;98309.84;;;1.18;74.28
67397;BME280;57728;50.448;18.824;2023-04-03T03:11:40;98370.47;;;1.53;74.87
67397;BME280;57728;50.448;18.824;2023-04-03T03:13:42;98369.94;;;1.50;74.63
67397;BME280;57728;50.448;18.824;2023-04-03T03:15:44;98294.03;;;0.98;74.29
67397;BME280;57728;50.448;18.824;2023-04-03T03:17:46;98309.47;;;0.96;74.18
67397;BME280;57728;50.448;18.824;2023-04-03T03:19:47;98298.88;;;0.87;74.37
67397;BME280;57728;50.448;18.824;2023-04-03T03:21:48;98296.00;;;0.80;74.65
67397;BME280;57728;50.448;18.824;2023-04-03T03:23:51;98280.34;;;0.59;74.15
67397;BME280;57728;50.448;18.824;2023-04-03T03:26:03;98362.81;;;1.16;74.70
67397;BME280;57728;50.448;18.824;2023-04-03T03:28:06;98369.19;;;1.15;74.70
67397;BME280;57728;50.448;18.824;2023-04-03T03:30:09;98307.03;;;0.77;74.54
67397;BME280;57728;50.448;18.824;2023-04-03T03:32:11;98251.28;;;0.38;74.40
67397;BME280;57728;50.448;18.824;2023-04-03T03:34:12;98293.19;;;0.55;74.50
67397;BME280;57728;50.448;18.824;2023-04-03T03:36:14;98342.22;;;0.82;74.70
67397;BME280;57728;50.448;18.824;2023-04-03T03:38:16;98152.91;;;-0.29;74.54
67397;BME280;57728;50.448;18.824;2023-04-03T03:40:17;98186.41;;;-0.17;74.51
67397;BME280;57728;50.448;18.824;2023-04-03T03:42:19;98383.50;;;0.97;74.60
67397;BME280;57728;50.448;18.824;2023-04-03T03:44:22;98380.16;;;0.95;74.68
67397;BME280;57728;50.448;18.824;2023-04-03T03:46:23;98384.84;;;0.93;74.73
67397;BME280;57728;50.448;18.824;2023-04-03T03:48:26;98335.94;;;0.57;74.54
67397;BME280;57728;50.448;18.824;2023-04-03T03:50:27;98383.63;;;0.88;74.68
67397;BME280;57728;50.448;18.824;2023-04-03T03:52:29;98390.03;;;0.87;74.62
67397;BME280;57728;50.448;18.824;2023-04-03T03:54:32;98366.34;;;0.74;74.58
67397;BME280;57728;50.448;18.824;2023-04-03T03:56:34;98390.19;;;0.85;74.58
67397;BME280;57728;50.448;18.824;2023-04-03T03:58:35;98339.78;;;0.54;74.47
67397;BME280;57728;50.448;18.824;2023-04-03T04:00:38;98311.50;;;0.33;74.47
67397;BME280;57728;50.448;18.824;2023-04-03T04:02:39;98388.81;;;0.81;74.29
67397;BME280;57728;50.448;18.824;2023-04-03T04:04:40;98399.69;;;0.79;74.25
67397;BME280;57728;50.448;18.824;2023-04-03T04:06:43;98398.84;;;0.79;74.23
67397;BME280;57728;50.448;18.824;2023-04-03T04:08:45;98364.88;;;0.53;74.15
67397;BME280;57728;50.448;18.824;2023-04-03T04:10:48;98368.72;;;0.50;74.21
67397;BME280;57728;50.448;18.824;2023-04-03T04:12:51;98323.88;;;0.26;74.17
67397;BME280;57728;50.448;18.824;2023-04-03T04:14:56;98322.50;;;0.22;74.20
67397;BME280;57728;50.448;18.824;2023-04-03T04:16:58;98329.69;;;0.22;74.09
67397;BME280;57728;50.448;18.824;2023-04-03T04:19:02;98368.81;;;0.41;74.25
67397;BME280;57728;50.448;18.824;2023-04-03T04:21:05;98286.78;;;-0.13;74.07
67397;BME280;57728;50.448;18.824;2023-04-03T04:23:06;98377.31;;;0.36;74.27
67397;BME280;57728;50.448;18.824;2023-04-03T04:25:08;98371.13;;;0.36;74.40
67397;BME280;57728;50.448;18.824;2023-04-03T04:27:11;98377.88;;;0.40;74.34
67397;BME280;57728;50.448;18.824;2023-04-03T04:29:13;98409.13;;;0.57;74.29
67397;BME280;57728;50.448;18.824;2023-04-03T04:31:15;98360.38;;;0.27;74.16
67397;BME280;57728;50.448;18.824;2023-04-03T04:33:17;98296.66;;;-0.13;74.15
67397;BME280;57728;50.448;18.824;2023-04-03T04:35:19;98406.75;;;0.54;74.03
67397;BME280;57728;50.448;18.824;2023-04-03T04:37:24;98372.06;;;0.26;74.03
67397;BME280;57728;50.448;18.824;2023-04-03T04:39:25;98358.94;;;0.15;73.99
67397;BME280;57728;50.448;18.824;2023-04-03T04:41:29;98414.72;;;0.46;74.14
67397;BME280;57728;50.448;18.824;2023-04-03T04:43:32;98381.72;;;0.19;73.98
67397;BME280;57728;50.448;18.824;2023-04-03T04:45:34;98422.94;;;0.44;74.26
67397;BME280;57728;50.448;18.824;2023-04-03T04:47:35;98340.53;;;-0.06;74.28
67397;BME280;57728;50.448;18.824;2023-04-03T04:49:37;98258.34;;;-0.58;73.97
67397;BME280;57728;50.448;18.824;2023-04-03T04:51:39;98367.28;;;0.12;74.11
67397;BME280;57728;50.448;18.824;2023-04-03T04:53:41;98419.53;;;0.42;73.86
67397;BME280;57728;50.448;18.824;2023-04-03T04:55:47;98374.63;;;0.10;74.04
67397;BME280;57728;50.448;18.824;2023-04-03T04:57:49;98351.94;;;-0.04;73.87
67397;BME280;57728;50.448;18.824;2023-04-03T04:59:51;98431.44;;;0.40;73.95
67397;BME280;57728;50.448;18.824;2023-04-03T05:01:53;98384.09;;;0.04;73.69
67397;BME280;57728;50.448;18.824;2023-04-03T05:03:54;98381.91;;;-0.01;73.94
67397;BME280;57728;50.448;18.824;2023-04-03T05:05:58;98232.09;;;-0.99;73.76
67397;BME280;57728;50.448;18.824;2023-04-03T05:08:02;98439.56;;;0.30;73.87
67397;BME280;57728;50.448;18.824;2023-04-03T05:10:04;98458.00;;;0.33;73.75
67397;BME280;57728;50.448;18.824;2023-04-03T05:12:07;98465.88;;;0.34;73.74
67397;BME280;57728;50.448;18.824;2023-04-03T05:14:15;98234.69;;;-1.07;73.68
67397;BME280;57728;50.448;18.824;2023-04-03T05:16:16;98297.69;;;-0.68;73.71
67397;BME280;57728;50.448;18.824;2023-04-03T05:18:18;98456.00;;;0.35;73.71
67397;BME280;57728;50.448;18.824;2023-04-03T05:20:21;98369.38;;;-0.18;73.54
67397;BME280;57728;50.448;18.824;2023-04-03T05:22:24;98466.72;;;0.35;73.39
67397;BME280;57728;50.448;18.824;2023-04-03T05:24:28;98419.38;;;-0.01;73.38
67397;BME280;57728;50.448;18.824;2023-04-03T05:26:31;98486.75;;;0.31;73.46
67397;BME280;57728;50.448;18.824;2023-04-03T05:28:34;98372.31;;;-0.29;73.48
67397;BME280;57728;50.448;18.824;2023-04-03T05:30:36;98364.72;;;-0.34;73.42
67397;BME280;57728;50.448;18.824;2023-04-03T05:32:39;98416.41;;;0.03;73.40
67397;BME280;57728;50.448;18.824;2023-04-03T05:35:01;98478.28;;;0.36;73.29
67397;BME280;57728;50.448;18.824;2023-04-03T05:37:03;98350.13;;;-0.40;73.20
67397;BME280;57728;50.448;18.824;2023-04-03T05:39:07;98463.97;;;0.27;73.46
67397;BME280;57728;50.448;18.824;2023-04-03T05:41:13;98467.41;;;0.37;73.33
67397;BME280;57728;50.448;18.824;2023-04-03T05:43:17;98274.84;;;-0.81;72.97
67397;BME280;57728;50.448;18.824;2023-04-03T05:45:20;98280.59;;;-0.76;72.93
67397;BME280;57728;50.448;18.824;2023-04-03T05:47:22;98497.94;;;0.44;72.70
67397;BME280;57728;50.448;18.824;2023-04-03T05:49:24;98474.81;;;0.43;72.69
67397;BME280;57728;50.448;18.824;2023-04-03T05:51:32;98211.16;;;-1.22;72.65
67397;BME280;57728;50.448;18.824;2023-04-03T05:53:44;98381.09;;;-0.19;72.59
67397;BME280;57728;50.448;18.824;2023-04-03T05:55:46;98439.59;;;0.12;72.82
67397;BME280;57728;50.448;18.824;2023-04-03T05:57:48;98483.00;;;0.42;72.68
67397;BME280;57728;50.448;18.824;2023-04-03T05:59:51;98479.19;;;0.44;72.67
67397;BME280;57728;50.448;18.824;2023-04-03T06:01:53;98387.66;;;-0.13;72.70
67397;BME280;57728;50.448;18.824;2023-04-03T06:03:56;98412.41;;;0.07;72.80
67397;BME280;57728;50.448;18.824;2023-04-03T06:06:03;98486.81;;;0.57;72.94
67397;BME280;57728;50.448;18.824;2023-04-03T06:08:05;98280.28;;;-0.73;72.38
67397;BME280;57728;50.448;18.824;2023-04-03T06:10:10;98486.19;;;0.63;72.50
67397;BME280;57728;50.448;18.824;2023-04-03T06:12:13;98487.88;;;0.64;72.26
67397;BME280;57728;50.448;18.824;2023-04-03T06:14:15;98271.66;;;-0.66;72.35
67397;BME280;57728;50.448;18.824;2023-04-03T06:16:18;98135.88;;;-1.53;71.86
67397;BME280;57728;50.448;18.824;2023-04-03T06:18:20;98243.47;;;-0.79;71.89
67397;BME280;57728;50.448;18.824;2023-04-03T06:20:22;98457.97;;;0.51;71.96
67397;BME280;57728;50.448;18.824;2023-04-03T06:22:24;98185.38;;;-1.13;71.86
67397;BME280;57728;50.448;18.824;2023-04-03T06:24:27;98489.16;;;0.78;71.86
67397;BME280;57728;50.448;18.824;2023-04-03T06:26:28;98497.34;;;0.77;71.83
67397;BME280;57728;50.448;18.824;2023-04-03T06:28:30;98427.31;;;0.27;71.82
67397;BME280;57728;50.448;18.824;2023-04-03T06:30:32;98283.19;;;-0.48;71.72
67397;BME280;57728;50.448;18.824;2023-04-03T06:32:33;98506.69;;;0.99;71.92
67397;BME280;57728;50.448;18.824;2023-04-03T06:34:35;98506.59;;;1.09;71.74
67397;BME280;57728;50.448;18.824;2023-04-03T06:36:38;98422.19;;;0.60;71.34
67397;BME280;57728;50.448;18.824;2023-04-03T06:38:40;98484.84;;;1.12;71.26
67397;BME280;57728;50.448;18.824;2023-04-03T06:40:42;98494.97;;;1.26;71.03
67397;BME280;57728;50.448;18.824;2023-04-03T06:42:45;98395.13;;;0.72;70.59
67397;BME280;57728;50.448;18.824;2023-04-03T06:44:47;98460.38;;;1.15;70.21
67397;BME280;57728;50.448;18.824;2023-04-03T06:46:49;98373.34;;;0.75;70.29
67397;BME280;57728;50.448;18.824;2023-04-03T06:48:53;98374.75;;;0.87;70.05
67397;BME280;57728;50.448;18.824;2023-04-03T06:50:54;98515.47;;;1.86;69.98
67397;BME280;57728;50.448;18.824;2023-04-03T06:52:57;98285.81;;;0.49;69.68
67397;BME280;57728;50.448;18.824;2023-04-03T06:54:58;98490.19;;;1.97;69.81
67397;BME280;57728;50.448;18.824;2023-04-03T06:57:00;98356.13;;;1.12;69.14
67397;BME280;57728;50.448;18.824;2023-04-03T06:59:03;98492.59;;;2.25;69.40
67397;BME280;57728;50.448;18.824;2023-04-03T07:01:04;98522.16;;;2.58;68.01
67397;BME280;57728;50.448;18.824;2023-04-03T07:03:06;98506.03;;;2.58;67.67
67397;BME280;57728;50.448;18.824;2023-04-03T07:05:08;98510.06;;;2.70;67.79
67397;BME280;57728;50.448;18.824;2023-04-03T07:07:10;98529.22;;;2.92;67.73
67397;BME280;57728;50.448;18.824;2023-04-03T07:09:11;98358.06;;;2.02;66.67
67397;BME280;57728;50.448;18.824;2023-04-03T07:11:14;98536.09;;;3.11;66.08
67397;BME280;57728;50.448;18.824;2023-04-03T07:13:16;98448.59;;;2.59;65.36
67397;BME280;57728;50.448;18.824;2023-04-03T07:15:18;98304.22;;;1.62;64.76
67397;BME280;57728;50.448;18.824;2023-04-03T07:17:20;98280.56;;;1.58;64.37
67397;BME280;57728;50.448;18.824;2023-04-03T07:19:21;98454.09;;;2.66;64.33
67397;BME280;57728;50.448;18.824;2023-04-03T07:21:25;98548.50;;;3.20;63.99
67397;BME280;57728;50.448;18.824;2023-04-03T07:23:27;98482.97;;;2.88;63.73
67397;BME280;57728;50.448;18.824;2023-04-03T07:25:29;98434.66;;;2.39;61.65
67397;BME280;57728;50.448;18.824;2023-04-03T07:27:31;98544.84;;;2.97;62.12
67397;BME280;57728;50.448;18.824;2023-04-03T07:29:33;98564.69;;;2.87;62.50
67397;BME280;57728;50.448;18.824;2023-04-03T07:31:35;98444.53;;;2.22;62.67
67397;BME280;57728;50.448;18.824;2023-04-03T07:33:37;98519.66;;;2.56;62.35
67397;BME280;57728;50.448;18.824;2023-04-03T07:35:40;98480.50;;;2.29;61.71
67397;BME280;57728;50.448;18.824;2023-04-03T07:37:43;98557.28;;;2.65;61.86
67397;BME280;57728;50.448;18.824;2023-04-03T07:39:44;98559.97;;;2.56;61.79
67397;BME280;57728;50.448;18.824;2023-04-03T07:41:46;98559.44;;;2.53;62.23
67397;BME280;57728;50.448;18.824;2023-04-03T07:43:48;98492.88;;;2.05;61.94
67397;BME280;57728;50.448;18.824;2023-04-03T07:45:51;98557.44;;;2.47;61.81
67397;BME280;57728;50.448;18.824;2023-04-03T07:47:54;98363.47;;;1.10;61.72
67397;BME280;57728;50.448;18.824;2023-04-03T07:49:55;98511.19;;;2.10;61.75
67397;BME280;57728;50.448;18.824;2023-04-03T07:51:58;98532.50;;;2.12;62.09
67397;BME280;57728;50.448;18.824;2023-04-03T07:54:00;98541.81;;;2.42;62.67
67397;BME280;57728;50.448;18.824;2023-04-03T07:56:02;98445.88;;;1.93;62.43
67397;BME280;57728;50.448;18.824;2023-04-03T07:58:03;98318.59;;;1.28;62.00
67397;BME280;57728;50.448;18.824;2023-04-03T08:00:07;98562.47;;;2.91;61.95
67397;BME280;57728;50.448;18.824;2023-04-03T08:02:15;98341.13;;;1.68;61.66
67397;BME280;57728;50.448;18.824;2023-04-03T08:04:17;98507.34;;;2.87;61.64
67397;BME280;57728;50.448;18.824;2023-04-03T08:06:19;98558.75;;;3.25;60.78
67397;BME280;57728;50.448;18.824;2023-04-03T08:08:22;98562.31;;;3.25;60.21
67397;BME280;57728;50.448;18.824;2023-04-03T08:10:24;98554.72;;;3.29;60.22
67397;BME280;57728;50.448;18.824;2023-04-03T08:12:27;98533.41;;;3.11;60.16
67397;BME280;57728;50.448;18.824;2023-04-03T08:14:32;98444.69;;;2.70;59.85
67397;BME280;57728;50.448;18.824;2023-04-03T08:16:36;98547.59;;;3.44;59.39
67397;BME280;57728;50.448;18.824;2023-04-03T08:18:39;98199.56;;;1.46;58.70
67397;BME280;57728;50.448;18.824;2023-04-03T08:20:40;98545.53;;;3.63;57.68
67397;BME280;57728;50.448;18.824;2023-04-03T08:22:42;98539.09;;;3.72;57.36
67397;BME280;57728;50.448;18.824;2023-04-03T08:24:44;98485.00;;;3.51;56.25
67397;BME280;57728;50.448;18.824;2023-04-03T08:26:46;98347.78;;;2.55;55.05
67397;BME280;57728;50.448;18.824;2023-04-03T08:28:48;98538.38;;;3.87;54.90
67397;BME280;57728;50.448;18.824;2023-04-03T08:30:50;98366.69;;;2.78;54.38
67397;BME280;57728;50.448;18.824;2023-04-03T08:32:51;98547.94;;;3.98;54.51
67397;BME280;57728;50.448;18.824;2023-04-03T08:34:53;98281.94;;;2.51;54.77
67397;BME280;57728;50.448;18.824;2023-04-03T08:36:56;98549.34;;;4.17;53.65
67397;BME280;57728;50.448;18.824;2023-04-03T08:38:58;98405.06;;;3.20;53.41
67397;BME280;57728;50.448;18.824;2023-04-03T08:41:20;98559.34;;;4.31;52.69
67397;BME280;57728;50.448;18.824;2023-04-03T08:46:46;98487.94;;;4.27;51.76
67397;BME280;57728;50.448;18.824;2023-04-03T08:49:22;98523.00;;;4.73;51.57
67397;BME280;57728;50.448;18.824;2023-04-03T08:51:29;98542.38;;;5.30;51.37
67397;BME280;57728;50.448;18.824;2023-04-03T08:53:36;98540.34;;;5.77;50.12
67397;BME280;57728;50.448;18.824;2023-04-03T08:55:49;98435.00;;;5.47;48.78
67397;BME280;57728;50.448;18.824;2023-04-03T08:58:12;98491.41;;;6.38;48.25
67397;BME280;57728;50.448;18.824;2023-04-03T09:00:23;98518.28;;;6.89;47.61
67397;BME280;57728;50.448;18.824;2023-04-03T09:04:50;98553.16;;;7.56;43.99
67397;BME280;57728;50.448;18.824;2023-04-03T09:07:02;98549.69;;;7.62;43.73
67397;BME280;57728;50.448;18.824;2023-04-03T09:09:38;98554.19;;;7.83;42.38
67397;BME280;57728;50.448;18.824;2023-04-03T09:12:04;98553.31;;;8.31;42.69
67397;BME280;57728;50.448;18.824;2023-04-03T09:14:56;98547.84;;;9.13;42.20
67397;BME280;57728;50.448;18.824;2023-04-03T09:22:32;98551.81;;;11.50;39.11
67397;BME280;57728;50.448;18.824;2023-04-03T09:24:38;98520.44;;;11.85;38.76
67397;BME280;57728;50.448;18.824;2023-04-03T09:27:05;98540.72;;;12.45;38.38
67397;BME280;57728;50.448;18.824;2023-04-03T09:29:19;98550.50;;;12.95;37.29
67397;BME280;57728;50.448;18.824;2023-04-03T09:31:36;98527.50;;;13.26;36.91
67397;BME280;57728;50.448;18.824;2023-04-03T09:33:43;98445.47;;;12.90;35.52
67397;BME280;57728;50.448;18.824;2023-04-03T09:35:48;98485.06;;;13.12;34.73
67397;BME280;57728;50.448;18.824;2023-04-03T09:40:44;98545.84;;;14.08;34.42
67397;BME280;57728;50.448;18.824;2023-04-03T09:42:48;98491.63;;;13.82;33.12
67397;BME280;57728;50.448;18.824;2023-04-03T09:45:02;98560.97;;;13.99;32.58
67397;BME280;57728;50.448;18.824;2023-04-03T09:47:25;98562.88;;;13.75;33.28
67397;BME280;57728;50.448;18.824;2023-04-03T09:49:27;98441.56;;;12.98;32.76
67397;BME280;57728;50.448;18.824;2023-04-03T09:51:29;98568.09;;;14.00;32.20
67397;BME280;57728;50.448;18.824;2023-04-03T09:53:42;98504.13;;;13.54;32.22
67397;BME280;57728;50.448;18.824;2023-04-03T09:55:45;98424.78;;;12.83;31.21
67397;BME280;57728;50.448;18.824;2023-04-03T09:57:48;98411.72;;;12.61;31.35
67397;BME280;57728;50.448;18.824;2023-04-03T09:59:59;98514.44;;;13.28;31.25
67397;BME280;57728;50.448;18.824;2023-04-03T10:02:17;98547.91;;;13.78;30.77
67397;BME280;57728;50.448;18.824;2023-04-03T10:04:24;98577.22;;;14.18;30.80
67397;BME280;57728;50.448;18.824;2023-04-03T10:06:31;98506.09;;;14.06;31.02
67397;BME280;57728;50.448;18.824;2023-04-03T10:08:36;98518.84;;;14.41;30.04
67397;BME280;57728;50.448;18.824;2023-04-03T10:10:38;98522.31;;;14.94;30.66
67397;BME280;57728;50.448;18.824;2023-04-03T10:12:42;98522.94;;;15.69;30.31
67397;BME280;57728;50.448;18.824;2023-04-03T10:14:57;98567.56;;;16.38;30.63
67397;BME280;57728;50.448;18.824;2023-04-03T10:19:47;98559.31;;;16.60;27.57
67397;BME280;57728;50.448;18.824;2023-04-03T10:21:59;98520.78;;;15.71;27.60
67397;BME280;57728;50.448;18.824;2023-04-03T10:24:28;98554.63;;;14.63;28.51
67397;BME280;57728;50.448;18.824;2023-04-03T10:27:09;98548.41;;;12.97;29.13
67397;BME280;57728;50.448;18.824;2023-04-03T10:29:43;98567.22;;;12.07;30.91
67397;BME280;57728;50.448;18.824;2023-04-03T10:32:26;98575.13;;;11.72;31.88
67397;BME280;57728;50.448;18.824;2023-04-03T10:35:02;98538.19;;;11.94;31.98
67397;BME280;57728;50.448;18.824;2023-04-03T10:42:43;98585.53;;;10.74;31.63
67397;BME280;57728;50.448;18.824;2023-04-03T10:47:52;98578.94;;;10.56;33.12
67397;BME280;57728;50.448;18.824;2023-04-03T10:52:51;98574.75;;;11.43;32.88
67397;BME280;57728;50.448;18.824;2023-04-03T10:57:39;98557.13;;;13.29;30.59
67397;BME280;57728;50.448;18.824;2023-04-03T10:59:47;98561.56;;;13.54;30.08
67397;BME280;57728;50.448;18.824;2023-04-03T11:02:00;98489.22;;;13.26;29.97
67397;BME280;57728;50.448;18.824;2023-04-03T11:04:07;98454.44;;;12.55;29.36
67397;BME280;57728;50.448;18.824;2023-04-03T11:06:15;98573.06;;;13.32;30.38
67397;BME280;57728;50.448;18.824;2023-04-03T11:08:46;98519.97;;;13.52;30.28
67397;BME280;57728;50.448;18.824;2023-04-03T11:11:00;98473.72;;;14.03;29.84
67397;BME280;57728;50.448;18.824;2023-04-03T11:13:10;98569.13;;;15.38;28.39
67397;BME280;57728;50.448;18.824;2023-04-03T11:15:20;98541.94;;;15.88;28.04
67397;BME280;57728;50.448;18.824;2023-04-03T11:17:35;98562.31;;;16.58;27.49
67397;BME280;57728;50.448;18.824;2023-04-03T11:20:01;98560.34;;;17.03;26.95
67397;BME280;57728;50.448;18.824;2023-04-03T11:27:20;98526.84;;;16.57;24.58
67397;BME280;57728;50.448;18.824;2023-04-03T11:29:33;98495.41;;;15.08;25.54
67397;BME280;57728;50.448;18.824;2023-04-03T11:34:31;98559.88;;;13.29;27.47
67397;BME280;57728;50.448;18.824;2023-04-03T11:36:48;98582.97;;;13.45;27.74
67397;BME280;57728;50.448;18.824;2023-04-03T11:38:59;98405.63;;;12.71;28.19
67397;BME280;57728;50.448;18.824;2023-04-03T11:41:11;98413.50;;;13.62;27.48
67397;BME280;57728;50.448;18.824;2023-04-03T11:43:22;98475.28;;;15.02;27.49